Time;durP1;ratioP1;P1;durP2;ratioP2;P2;SDS_P1;SDS_P2;PMS_P1;PMS_P2;Temp;Humidity;BMP_temperature;BMP_pressure;BME280_temperature;BME280_humidity;BME280_pressure;Samples;Min_cycle;Max_cycle;Signal;HPM_P1;HPM_P2
2022/01/06 00:01:53;;;;;;;0.83;0.83;;;7.00;99.90;;;;;;4960129;28;20235;-91
2022/01/06 00:04:19;;;;;;;0.57;0.57;;;6.90;99.90;;;;;;4991729;28;20219;-92
2022/01/06 00:06:45;;;;;;;0.63;0.63;;;7.00;99.90;;;;;;4973541;28;20697;-90
2022/01/06 00:09:15;;;;;;;0.10;0.10;;;7.00;99.90;;;;;;4990333;28;20208;-90
2022/01/06 00:11:41;;;;;;;0.50;0.50;;;7.00;99.90;;;;;;4993354;28;20278;-91
2022/01/06 00:14:21;;;;;;;12.57;2.47;;;6.90;99.90;;;;;;4975478;28;20327;-91
2022/01/06 00:24:48;;;;;;;1.33;1.23;;;6.80;99.90;;;;;;4991744;28;20208;-91
2022/01/06 00:27:14;;;;;;;0.20;0.20;;;6.80;99.90;;;;;;4977083;28;20299;-91
2022/01/06 00:29:41;;;;;;;0.53;0.50;;;6.70;99.90;;;;;;4976796;28;20191;-90
2022/01/06 00:32:07;;;;;;;0.30;0.30;;;6.70;99.90;;;;;;4976525;28;20204;-91
2022/01/06 00:34:33;;;;;;;0.60;0.60;;;6.70;99.90;;;;;;4974523;28;20219;-92
2022/01/06 00:37:00;;;;;;;2.20;0.60;;;6.70;99.90;;;;;;4975819;28;20217;-91
2022/01/06 00:39:27;;;;;;;0.97;0.83;;;6.70;99.90;;;;;;4961571;28;20225;-90
2022/01/06 00:41:56;;;;;;;0.70;0.70;;;6.60;99.90;;;;;;4960546;28;20223;-90
2022/01/06 00:44:23;;;;;;;0.90;0.67;;;6.60;99.90;;;;;;4992409;28;20188;-90
2022/01/06 00:46:49;;;;;;;0.47;0.47;;;6.60;99.90;;;;;;4975639;28;20695;-90
2022/01/06 00:49:17;;;;;;;0.50;0.50;;;6.70;99.90;;;;;;4990728;28;20708;-90
2022/01/06 00:51:43;;;;;;;0.63;0.57;;;6.80;99.90;;;;;;4959626;28;20710;-90
2022/01/06 00:54:09;;;;;;;1.50;1.17;;;6.90;99.90;;;;;;4990027;28;20298;-90
2022/01/06 00:56:35;;;;;;;0.33;0.33;;;6.90;99.90;;;;;;4958746;28;20334;-91
2022/01/06 00:59:00;;;;;;;0.30;0.30;;;6.80;99.90;;;;;;4976567;28;20305;-91
2022/01/06 01:01:26;;;;;;;0.50;0.50;;;6.70;99.90;;;;;;4958195;28;20314;-90
2022/01/06 01:03:52;;;;;;;0.53;0.30;;;6.70;99.90;;;;;;4973294;28;20223;-91
2022/01/06 01:06:18;;;;;;;1.53;0.50;;;6.70;99.90;;;;;;4990272;28;20239;-90
2022/01/06 01:08:44;;;;;;;1.50;0.30;;;6.70;99.90;;;;;;4974139;28;20200;-91
2022/01/06 01:11:10;;;;;;;0.63;0.63;;;6.70;99.90;;;;;;4975911;28;20691;-91
2022/01/06 01:13:47;;;;;;;1.53;1.00;;;6.70;99.90;;;;;;4975723;28;20680;-90
2022/01/06 01:16:26;;;;;;;0.53;0.53;;;6.70;99.90;;;;;;4973987;28;20544;-91
2022/01/06 01:18:52;;;;;;;0.30;0.30;;;6.60;99.90;;;;;;4987500;28;20246;-91
2022/01/06 01:21:20;;;;;;;0.20;0.20;;;6.70;99.90;;;;;;4970795;28;20223;-91
2022/01/06 01:23:46;;;;;;;0.23;0.23;;;6.80;99.90;;;;;;4975662;28;20279;-90
2022/01/06 01:26:12;;;;;;;2.90;1.60;;;6.80;99.90;;;;;;4992057;28;20787;-90
2022/01/06 01:28:44;;;;;;;0.53;0.53;;;6.80;99.90;;;;;;4972358;28;20247;-91
2022/01/06 01:33:44;;;;;;;0.63;0.63;;;6.70;99.90;;;;;;4989905;28;20274;-90
2022/01/06 01:36:11;;;;;;;0.60;0.60;;;6.70;99.90;;;;;;4974359;28;20228;-90
2022/01/06 01:38:37;;;;;;;0.30;0.30;;;6.80;99.90;;;;;;4989355;28;20596;-92
2022/01/06 01:41:04;;;;;;;0.70;0.70;;;6.70;99.90;;;;;;4959384;28;20314;-90
2022/01/06 01:43:30;;;;;;;0.30;0.30;;;6.70;99.90;;;;;;4973978;28;20990;-91
2022/01/06 01:45:58;;;;;;;0.43;0.43;;;6.70;99.90;;;;;;4990536;28;21016;-91
2022/01/06 01:48:33;;;;;;;0.30;0.30;;;6.60;99.90;;;;;;4974752;28;20215;-92
2022/01/06 01:50:59;;;;;;;0.30;0.30;;;6.60;99.90;;;;;;4986971;28;20294;-91
2022/01/06 01:53:25;;;;;;;0.40;0.40;;;6.60;99.90;;;;;;4957825;28;20279;-92
2022/01/06 01:55:51;;;;;;;0.20;0.20;;;6.50;99.90;;;;;;4957476;28;20255;-91
2022/01/06 01:58:18;;;;;;;0.30;0.30;;;6.50;99.90;;;;;;4989865;28;20234;-91
2022/01/06 02:00:44;;;;;;;0.60;0.60;;;6.40;99.90;;;;;;5006627;28;20230;-91
2022/01/06 02:03:10;;;;;;;7.43;0.83;;;6.40;99.90;;;;;;4962809;28;20290;-91
2022/01/06 02:05:35;;;;;;;0.50;0.50;;;6.40;99.90;;;;;;4979453;28;20191;-91
2022/01/06 02:08:02;;;;;;;0.43;0.40;;;6.30;99.90;;;;;;4976491;28;20276;-91
2022/01/06 02:10:29;;;;;;;5.20;0.83;;;6.20;99.90;;;;;;4992777;28;20296;-91
2022/01/06 02:12:56;;;;;;;10.03;0.90;;;6.10;99.90;;;;;;4975842;28;20588;-91
2022/01/06 02:15:23;;;;;;;1.07;1.07;;;6.20;99.90;;;;;;4968354;28;20212;-91
2022/01/06 02:17:50;;;;;;;2.23;0.47;;;6.10;99.90;;;;;;4978817;28;20223;-90
2022/01/06 02:20:17;;;;;;;1.90;0.70;;;6.00;99.90;;;;;;4994516;28;20219;-91
2022/01/06 02:22:44;;;;;;;2.50;2.03;;;6.10;99.90;;;;;;4976280;28;20307;-91
2022/01/06 02:25:16;;;;;;;11.43;0.70;;;6.10;99.90;;;;;;4993280;28;20261;-91
2022/01/06 02:27:44;;;;;;;6.43;1.33;;;6.10;99.90;;;;;;5006788;28;20208;-91
2022/01/06 02:30:11;;;;;;;0.40;0.40;;;6.10;99.90;;;;;;4991074;28;20230;-92
2022/01/06 02:32:37;;;;;;;3.13;1.03;;;6.20;99.90;;;;;;4992982;28;20172;-89
2022/01/06 02:35:07;;;;;;;0.40;0.40;;;6.10;99.90;;;;;;4977631;28;20310;-90
2022/01/06 02:37:33;;;;;;;0.30;0.30;;;6.00;99.90;;;;;;4960958;28;20591;-90
2022/01/06 02:40:01;;;;;;;0.30;0.30;;;6.00;99.90;;;;;;4959656;28;20220;-92
2022/01/06 02:42:29;;;;;;;4.10;1.50;;;5.90;99.90;;;;;;4992093;28;20238;-90
2022/01/06 02:44:54;;;;;;;2.20;0.70;;;5.90;99.90;;;;;;4975743;28;20212;-91
2022/01/06 02:47:20;;;;;;;0.37;0.37;;;5.80;99.90;;;;;;4977300;28;20522;-90
2022/01/06 02:49:46;;;;;;;1.03;0.63;;;5.80;99.90;;;;;;4975770;28;20217;-90
2022/01/06 02:52:11;;;;;;;0.20;0.20;;;5.70;99.90;;;;;;4960682;28;20219;-90
2022/01/06 02:54:37;;;;;;;1.87;1.70;;;5.80;99.90;;;;;;4960863;28;20239;-91
2022/01/06 02:57:04;;;;;;;0.60;0.60;;;5.80;99.90;;;;;;4976497;28;20231;-90
2022/01/06 02:59:30;;;;;;;1.90;1.60;;;5.70;99.90;;;;;;4959476;28;20591;-91
2022/01/06 03:01:56;;;;;;;4.53;1.23;;;5.50;99.90;;;;;;4977310;28;20271;-91
2022/01/06 03:04:23;;;;;;;0.50;0.50;;;5.50;99.90;;;;;;4993058;28;20307;-91
2022/01/06 03:06:49;;;;;;;13.77;1.70;;;5.50;99.90;;;;;;4960102;28;20210;-90
2022/01/06 03:09:24;;;;;;;0.20;0.20;;;5.50;99.90;;;;;;4959474;28;20205;-90
2022/01/06 03:11:51;;;;;;;0.23;0.23;;;5.50;99.90;;;;;;4991785;28;20669;-90
2022/01/06 03:14:17;;;;;;;0.60;0.60;;;5.60;99.90;;;;;;4975591;28;20172;-90
2022/01/06 03:16:43;;;;;;;0.30;0.30;;;5.80;99.90;;;;;;4960114;28;20204;-91
2022/01/06 03:19:08;;;;;;;0.40;0.40;;;5.90;99.90;;;;;;4960220;28;20212;-91
2022/01/06 03:21:34;;;;;;;0.83;0.83;;;5.90;99.90;;;;;;4959891;28;20226;-90
2022/01/06 03:24:00;;;;;;;1.60;1.57;;;5.70;99.90;;;;;;4975294;28;20211;-90
2022/01/06 03:26:26;;;;;;;1.27;1.27;;;5.80;99.90;;;;;;4960412;28;20199;-92
2022/01/06 03:28:51;;;;;;;6.33;1.70;;;5.80;99.90;;;;;;4976312;28;20275;-91
2022/01/06 03:31:17;;;;;;;0.63;0.60;;;5.80;99.90;;;;;;4976391;28;20270;-91
2022/01/06 03:33:43;;;;;;;2.90;1.87;;;5.80;99.90;;;;;;4972163;28;20254;-91
2022/01/06 03:36:09;;;;;;;2.30;2.20;;;5.80;99.90;;;;;;4976040;28;20238;-91
2022/01/06 03:38:35;;;;;;;0.60;0.60;;;5.70;99.90;;;;;;4975557;28;20228;-90
2022/01/06 03:41:00;;;;;;;3.33;0.80;;;5.70;99.90;;;;;;4975359;28;20215;-91
2022/01/06 03:43:26;;;;;;;5.10;1.07;;;5.70;99.90;;;;;;4975733;28;20212;-92
2022/01/06 03:45:52;;;;;;;21.70;2.10;;;5.70;99.90;;;;;;4992086;28;20208;-90
2022/01/06 03:48:18;;;;;;;0.70;0.70;;;5.60;99.90;;;;;;4960137;28;20204;-91
2022/01/06 03:50:43;;;;;;;0.73;0.73;;;5.50;99.90;;;;;;4975180;28;20189;-90
2022/01/06 03:53:09;;;;;;;1.33;1.23;;;5.50;99.90;;;;;;4958763;28;20193;-91
2022/01/06 03:55:36;;;;;;;0.90;0.90;;;5.40;99.90;;;;;;4959524;28;20220;-91
2022/01/06 03:58:03;;;;;;;12.47;2.43;;;5.40;99.90;;;;;;4991827;28;20609;-90
2022/01/06 04:00:29;;;;;;;0.50;0.50;;;5.40;99.90;;;;;;4975578;28;20681;-91
2022/01/06 04:02:54;;;;;;;0.93;0.60;;;5.40;99.90;;;;;;4992592;28;20274;-91
2022/01/06 04:05:20;;;;;;;0.87;0.80;;;5.50;99.90;;;;;;4960637;28;20185;-90
2022/01/06 04:07:46;;;;;;;0.30;0.30;;;5.50;99.90;;;;;;4960636;28;20240;-91
2022/01/06 04:10:12;;;;;;;3.07;0.43;;;5.50;99.90;;;;;;4974939;28;20200;-90
2022/01/06 04:12:38;;;;;;;0.87;0.40;;;5.40;99.90;;;;;;5006996;28;20208;-90
2022/01/06 04:15:10;;;;;;;0.40;0.40;;;5.30;99.90;;;;;;4993044;28;20219;-92
2022/01/06 04:17:35;;;;;;;0.87;0.87;;;5.40;99.90;;;;;;4990418;28;20589;-91
2022/01/06 04:20:02;;;;;;;5.00;0.90;;;5.30;99.90;;;;;;4990501;28;20254;-90
2022/01/06 04:22:28;;;;;;;0.50;0.50;;;5.20;99.90;;;;;;4971294;28;20268;-91
2022/01/06 04:24:53;;;;;;;3.40;1.07;;;5.10;99.90;;;;;;4955413;28;20209;-91
2022/01/06 04:27:19;;;;;;;5.83;1.43;;;4.80;99.90;;;;;;4978655;28;20208;-90
2022/01/06 04:29:45;;;;;;;3.23;3.07;;;4.70;99.90;;;;;;4974223;28;20254;-91
2022/01/06 04:32:10;;;;;;;0.30;0.30;;;4.60;99.90;;;;;;4960310;28;20202;-90
2022/01/06 04:34:36;;;;;;;0.67;0.40;;;4.50;99.90;;;;;;4959533;28;20254;-91
2022/01/06 04:37:02;;;;;;;0.40;0.40;;;4.30;99.90;;;;;;4975536;28;20228;-91
2022/01/06 04:39:28;;;;;;;2.37;1.30;;;4.30;99.90;;;;;;4970414;28;20234;-90
2022/01/06 04:41:54;;;;;;;0.37;0.37;;;4.20;99.90;;;;;;4974264;28;20220;-91
2022/01/06 04:44:19;;;;;;;0.30;0.30;;;4.10;99.90;;;;;;4959517;28;20235;-91
2022/01/06 04:46:45;;;;;;;0.87;0.87;;;4.00;99.90;;;;;;4973438;28;20227;-91
2022/01/06 04:49:11;;;;;;;2.53;0.97;;;4.00;99.90;;;;;;4972150;28;20228;-91
2022/01/06 04:51:37;;;;;;;1.07;1.07;;;4.00;99.90;;;;;;4992623;28;20274;-91
2022/01/06 04:54:03;;;;;;;1.60;0.93;;;4.10;99.90;;;;;;4976514;28;20314;-90
2022/01/06 04:56:35;;;;;;;9.03;1.87;;;4.10;99.90;;;;;;4976363;28;20661;-89
2022/01/06 04:59:06;;;;;;;2.37;0.97;;;4.10;99.90;;;;;;4958956;28;20314;-91
2022/01/06 05:01:31;;;;;;;2.40;1.30;;;4.10;99.90;;;;;;4990827;28;20228;-90
2022/01/06 05:03:57;;;;;;;0.50;0.50;;;4.20;99.90;;;;;;4959456;28;20219;-91
2022/01/06 05:06:23;;;;;;;1.10;1.10;;;4.20;99.90;;;;;;4972827;28;20243;-90
2022/01/06 05:08:49;;;;;;;0.40;0.40;;;4.20;99.90;;;;;;4972122;28;20228;-90
2022/01/06 05:11:25;;;;;;;0.37;0.37;;;4.20;99.90;;;;;;4992064;28;20183;-90
2022/01/06 05:13:51;;;;;;;1.43;1.33;;;4.30;99.90;;;;;;4958640;28;20219;-91
2022/01/06 05:16:17;;;;;;;3.83;2.63;;;4.20;99.90;;;;;;4991318;28;20231;-91
2022/01/06 05:18:43;;;;;;;4.03;0.67;;;4.10;99.90;;;;;;4972687;28;20228;-90
2022/01/06 05:21:09;;;;;;;0.50;0.50;;;4.10;99.90;;;;;;4974862;28;20581;-93
2022/01/06 05:23:35;;;;;;;5.30;1.07;;;4.10;99.90;;;;;;4988347;28;20184;-89
2022/01/06 05:26:01;;;;;;;9.50;1.23;;;4.00;99.90;;;;;;4988620;28;20184;-89
2022/01/06 05:28:27;;;;;;;0.43;0.43;;;3.90;99.90;;;;;;4972192;28;20251;-93
2022/01/06 05:30:53;;;;;;;3.43;3.13;;;3.90;99.90;;;;;;4956201;28;20251;-88
2022/01/06 05:33:19;;;;;;;0.70;0.50;;;3.90;99.90;;;;;;4970971;28;20215;-88
2022/01/06 05:35:45;;;;;;;8.50;1.57;;;3.90;99.90;;;;;;4969677;28;20598;-89
2022/01/06 05:38:11;;;;;;;16.40;1.37;;;3.90;99.90;;;;;;4987749;28;20278;-89
2022/01/06 05:40:37;;;;;;;0.40;0.40;;;3.90;99.90;;;;;;4972069;28;20963;-91
2022/01/06 05:43:04;;;;;;;2.13;2.03;;;3.90;99.90;;;;;;4966284;28;20293;-88
2022/01/06 05:45:29;;;;;;;0.80;0.80;;;3.90;99.90;;;;;;4961928;28;20258;-90
2022/01/06 05:47:55;;;;;;;0.30;0.30;;;3.90;99.90;;;;;;4946139;28;20220;-88
2022/01/06 05:50:21;;;;;;;2.87;0.93;;;3.90;99.90;;;;;;4955735;28;20216;-89
2022/01/06 05:52:47;;;;;;;0.70;0.70;;;3.80;99.90;;;;;;4946433;28;20223;-90
2022/01/06 05:55:14;;;;;;;3.23;1.87;;;3.90;99.90;;;;;;4959841;28;20579;-88
2022/01/06 05:57:40;;;;;;;6.03;1.27;;;3.80;99.90;;;;;;4976770;28;20220;-88
2022/01/06 06:00:07;;;;;;;2.10;1.40;;;3.80;99.90;;;;;;4977460;28;20299;-90
2022/01/06 06:02:33;;;;;;;3.07;1.90;;;3.80;99.90;;;;;;4961296;28;20564;-89
2022/01/06 06:04:59;;;;;;;2.87;2.30;;;3.80;99.90;;;;;;4944770;28;20187;-88
2022/01/06 06:07:24;;;;;;;4.80;1.43;;;3.80;99.90;;;;;;4985288;28;20220;-90
2022/01/06 06:09:51;;;;;;;1.07;0.70;;;3.80;99.90;;;;;;4959628;28;20211;-88
2022/01/06 06:12:17;;;;;;;0.60;0.40;;;3.80;99.90;;;;;;4961059;28;20212;-89
2022/01/06 06:14:43;;;;;;;9.77;1.50;;;3.80;99.90;;;;;;4944270;28;20276;-88
2022/01/06 06:17:09;;;;;;;0.80;0.80;;;3.80;99.90;;;;;;4963337;28;20200;-89
2022/01/06 06:19:36;;;;;;;0.67;0.67;;;3.70;99.90;;;;;;4959344;28;20531;-88
2022/01/06 06:22:02;;;;;;;0.83;0.83;;;3.60;99.90;;;;;;4978973;28;20213;-89
2022/01/06 06:24:28;;;;;;;9.57;1.80;;;3.70;99.90;;;;;;4943956;28;20212;-89
2022/01/06 06:26:53;;;;;;;1.07;0.67;;;3.60;99.90;;;;;;4960835;28;20303;-89
2022/01/06 06:29:21;;;;;;;2.73;2.20;;;3.60;99.90;;;;;;4927233;28;20263;-88
2022/01/06 06:31:47;;;;;;;1.50;1.40;;;3.60;99.90;;;;;;4943316;28;20221;-87
2022/01/06 06:34:13;;;;;;;0.43;0.37;;;3.50;99.90;;;;;;4978444;28;20771;-87
2022/01/06 06:36:39;;;;;;;2.37;0.60;;;3.40;99.90;;;;;;4952984;28;20227;-88
2022/01/06 06:39:05;;;;;;;0.83;0.83;;;3.30;99.90;;;;;;4943140;28;20732;-88
2022/01/06 06:41:32;;;;;;;2.23;1.40;;;3.30;99.90;;;;;;4960382;28;20696;-92
2022/01/06 06:43:57;;;;;;;1.17;0.60;;;3.40;99.90;;;;;;4974907;28;20267;-88
2022/01/06 06:46:23;;;;;;;0.50;0.50;;;3.50;99.90;;;;;;4961074;28;20300;-91
2022/01/06 06:48:49;;;;;;;1.17;1.17;;;3.50;99.90;;;;;;4961923;28;20213;-87
2022/01/06 06:51:15;;;;;;;0.40;0.40;;;3.50;99.90;;;;;;4947396;28;20227;-88
2022/01/06 06:53:41;;;;;;;2.57;0.83;;;3.50;99.90;;;;;;4966689;28;20275;-90
2022/01/06 06:56:07;;;;;;;1.53;1.37;;;3.50;99.90;;;;;;4995273;28;20200;-88
2022/01/06 06:58:33;;;;;;;1.30;0.40;;;3.50;99.90;;;;;;4963500;28;20254;-89
2022/01/06 07:00:59;;;;;;;2.57;1.07;;;3.60;99.90;;;;;;4948778;28;20227;-88
2022/01/06 07:03:24;;;;;;;11.40;1.00;;;3.60;99.90;;;;;;4948672;28;20232;-88
2022/01/06 07:05:50;;;;;;;0.80;0.53;;;3.60;99.90;;;;;;4963872;28;20212;-87
2022/01/06 07:08:16;;;;;;;0.40;0.40;;;3.70;99.90;;;;;;4965907;28;20189;-89
2022/01/06 07:10:42;;;;;;;1.20;1.10;;;3.70;99.90;;;;;;4963784;28;20243;-89
2022/01/06 07:13:08;;;;;;;0.83;0.83;;;3.60;99.90;;;;;;4975117;28;20216;-87
2022/01/06 07:15:36;;;;;;;0.40;0.40;;;3.60;99.90;;;;;;4964033;28;20219;-90
2022/01/06 07:18:02;;;;;;;1.77;0.87;;;3.70;99.90;;;;;;4964629;28;20315;-88
2022/01/06 07:20:28;;;;;;;2.10;0.60;;;3.70;99.90;;;;;;4958013;28;20215;-88
2022/01/06 07:22:54;;;;;;;0.67;0.67;;;3.70;99.90;;;;;;4958046;28;20278;-89
2022/01/06 07:25:21;;;;;;;0.40;0.40;;;3.80;99.90;;;;;;4970579;28;20614;-94
2022/01/06 07:27:47;;;;;;;1.37;0.97;;;3.90;99.90;;;;;;4963203;28;20256;-87
2022/01/06 07:30:13;;;;;;;0.30;0.30;;;3.90;99.90;;;;;;4960598;28;20247;-88
2022/01/06 07:32:46;;;;;;;0.77;0.77;;;3.90;99.90;;;;;;4958284;28;20192;-87
2022/01/06 07:35:12;;;;;;;1.07;1.07;;;3.80;99.90;;;;;;4974025;28;20192;-89
2022/01/06 07:37:38;;;;;;;0.40;0.40;;;3.80;99.90;;;;;;4989004;28;20224;-88
2022/01/06 07:40:06;;;;;;;5.20;3.20;;;3.90;99.90;;;;;;4987917;28;20231;-88
2022/01/06 07:42:32;;;;;;;2.10;1.27;;;4.00;99.90;;;;;;4972275;28;20215;-90
2022/01/06 07:45:00;;;;;;;1.13;1.03;;;4.00;99.90;;;;;;4957205;28;21310;-88
2022/01/06 07:47:26;;;;;;;1.47;1.37;;;4.00;99.90;;;;;;4973470;28;20720;-88
2022/01/06 07:49:51;;;;;;;0.77;0.77;;;4.00;99.90;;;;;;4956191;28;20295;-87
2022/01/06 07:52:18;;;;;;;0.50;0.50;;;4.00;99.90;;;;;;4955389;28;20218;-89
2022/01/06 07:54:44;;;;;;;0.37;0.37;;;3.90;99.90;;;;;;4987281;28;20211;-92
2022/01/06 07:57:10;;;;;;;0.33;0.33;;;3.90;99.90;;;;;;4972027;28;20212;-90
2022/01/06 07:59:35;;;;;;;0.67;0.67;;;3.80;99.90;;;;;;4972667;28;20276;-88
2022/01/06 08:02:01;;;;;;;0.50;0.50;;;3.80;99.90;;;;;;4972393;28;20358;-88
2022/01/06 08:04:27;;;;;;;4.17;1.03;;;3.90;99.90;;;;;;4958259;28;20208;-87
2022/01/06 08:06:53;;;;;;;0.40;0.40;;;3.90;99.90;;;;;;4954597;28;20281;-85
2022/01/06 08:09:18;;;;;;;0.87;0.60;;;4.00;99.90;;;;;;4955544;28;20680;-88
2022/01/06 08:11:45;;;;;;;0.53;0.53;;;4.00;99.90;;;;;;4956232;28;20192;-88
2022/01/06 08:14:10;;;;;;;5.83;0.83;;;4.10;99.90;;;;;;4956204;28;20599;-87
2022/01/06 08:16:36;;;;;;;2.17;1.97;;;4.20;99.90;;;;;;4971853;28;20212;-88
2022/01/06 08:19:02;;;;;;;2.10;2.00;;;4.20;99.90;;;;;;4956268;28;20219;-90
2022/01/06 08:21:28;;;;;;;1.27;1.27;;;4.30;99.90;;;;;;4988565;28;20251;-88
2022/01/06 08:23:53;;;;;;;1.27;1.13;;;4.40;99.90;;;;;;4988430;28;20302;-89
2022/01/06 08:26:19;;;;;;;7.77;2.77;;;4.50;99.90;;;;;;4956736;28;20553;-88
2022/01/06 08:28:48;;;;;;;3.20;2.53;;;4.50;99.90;;;;;;4971753;28;20680;-87
2022/01/06 08:31:16;;;;;;;2.97;2.80;;;4.50;99.90;;;;;;4957281;28;20219;-89
2022/01/06 08:33:42;;;;;;;1.30;1.30;;;4.40;99.90;;;;;;4992707;28;20227;-87
2022/01/06 08:36:08;;;;;;;1.67;1.57;;;4.50;99.90;;;;;;4978232;28;20661;-89
2022/01/06 08:38:34;;;;;;;1.20;1.20;;;4.50;99.90;;;;;;4992045;28;20636;-87
2022/01/06 08:41:00;;;;;;;4.93;0.90;;;4.50;99.90;;;;;;4976899;28;20244;-90
2022/01/06 08:43:27;;;;;;;0.40;0.40;;;4.40;99.90;;;;;;4974333;28;20243;-87
2022/01/06 08:45:55;;;;;;;3.13;1.53;;;4.30;99.90;;;;;;4975055;28;20239;-87
2022/01/06 08:48:21;;;;;;;1.23;1.13;;;4.30;99.90;;;;;;4974505;28;20254;-87
2022/01/06 08:50:47;;;;;;;0.87;0.87;;;4.40;99.90;;;;;;4974886;28;20192;-87
2022/01/06 08:53:13;;;;;;;0.80;0.80;;;4.40;99.90;;;;;;4990836;28;20196;-89
2022/01/06 08:55:39;;;;;;;9.80;2.33;;;4.50;99.90;;;;;;4957488;28;20216;-88
2022/01/06 08:58:04;;;;;;;0.50;0.50;;;4.60;99.90;;;;;;4973681;28;20682;-88
2022/01/06 09:00:30;;;;;;;1.90;1.80;;;4.70;99.90;;;;;;4990390;28;20251;-88
2022/01/06 09:02:57;;;;;;;1.03;1.03;;;4.70;99.90;;;;;;4989790;28;20688;-89
2022/01/06 09:05:24;;;;;;;0.97;0.97;;;4.90;99.90;;;;;;4990671;28;20188;-88
2022/01/06 09:07:50;;;;;;;2.27;1.20;;;5.00;99.90;;;;;;4988421;28;20569;-91
2022/01/06 09:10:16;;;;;;;1.00;1.00;;;5.10;99.90;;;;;;4973320;28;20324;-88
2022/01/06 09:12:42;;;;;;;7.93;1.23;;;5.20;99.90;;;;;;4956080;28;20673;-89
2022/01/06 09:15:10;;;;;;;3.87;1.63;;;5.30;99.90;;;;;;4988245;28;20219;-89
2022/01/06 09:17:36;;;;;;;6.10;4.77;;;5.30;99.90;;;;;;4957092;28;20247;-88
2022/01/06 09:20:07;;;;;;;2.83;1.43;;;5.40;99.90;;;;;;4971535;28;20222;-88
2022/01/06 09:22:33;;;;;;;0.77;0.77;;;5.40;99.90;;;;;;5002149;28;20648;-87
2022/01/06 09:24:59;;;;;;;7.07;2.17;;;5.30;99.90;;;;;;4953817;28;20218;-88
2022/01/06 09:27:25;;;;;;;1.40;1.03;;;5.30;99.90;;;;;;4987389;28;20307;-88
2022/01/06 09:29:52;;;;;;;3.03;0.80;;;5.30;99.90;;;;;;4955635;28;20307;-90
2022/01/06 09:32:19;;;;;;;3.93;1.73;;;5.40;99.90;;;;;;4986850;28;20211;-89
2022/01/06 09:34:45;;;;;;;0.80;0.80;;;5.40;99.90;;;;;;4986820;28;20251;-87
2022/01/06 09:37:11;;;;;;;0.77;0.77;;;5.50;99.90;;;;;;4969731;28;20243;-87
2022/01/06 09:39:37;;;;;;;0.57;0.57;;;5.50;99.90;;;;;;4954548;28;20235;-89
2022/01/06 09:42:03;;;;;;;1.13;0.60;;;5.60;99.90;;;;;;4953931;28;20926;-87
2022/01/06 09:44:30;;;;;;;1.67;1.63;;;5.70;99.90;;;;;;4960549;28;20223;-90
2022/01/06 09:46:56;;;;;;;1.07;0.90;;;5.70;99.90;;;;;;4971731;28;20186;-89
2022/01/06 09:49:23;;;;;;;0.70;0.70;;;5.80;99.90;;;;;;4969734;28;20213;-88
2022/01/06 09:51:48;;;;;;;0.77;0.70;;;5.60;99.90;;;;;;4970072;28;20319;-89
2022/01/06 09:54:14;;;;;;;0.50;0.50;;;5.60;99.90;;;;;;4952869;28;20291;-86
2022/01/06 09:56:40;;;;;;;0.87;0.87;;;5.60;99.90;;;;;;4969733;28;20180;-87
2022/01/06 09:59:07;;;;;;;0.93;0.90;;;5.60;99.90;;;;;;4970417;28;20172;-88
2022/01/06 10:01:33;;;;;;;3.77;0.50;;;5.60;99.90;;;;;;4970209;28;20212;-90
2022/01/06 10:03:58;;;;;;;4.73;1.63;;;5.60;99.90;;;;;;4986388;28;20226;-90
2022/01/06 10:06:26;;;;;;;0.60;0.60;;;5.60;99.90;;;;;;4969649;28;20223;-88
2022/01/06 10:09:02;;;;;;;0.53;0.53;;;5.70;99.90;;;;;;4986140;28;20207;-87
2022/01/06 10:11:33;;;;;;;5.57;1.30;;;5.70;99.90;;;;;;4987378;28;20278;-87
2022/01/06 10:14:09;;;;;;;1.30;1.20;;;5.80;99.90;;;;;;5003063;28;20266;-87
2022/01/06 10:16:39;;;;;;;1.20;1.17;;;5.80;99.90;;;;;;5003408;28;20216;-87
2022/01/06 10:19:10;;;;;;;1.43;1.33;;;5.80;99.90;;;;;;5001148;28;20321;-87
2022/01/06 10:21:44;;;;;;;1.63;1.07;;;5.80;99.90;;;;;;4986045;28;20219;-90
2022/01/06 10:24:15;;;;;;;1.10;1.10;;;5.80;99.90;;;;;;4989637;28;20215;-88
2022/01/06 10:27:06;;;;;;;4.13;1.40;;;5.80;99.90;;;;;;4990383;28;20227;-85
2022/01/06 10:29:43;;;;;;;0.83;0.83;;;5.80;99.90;;;;;;5005480;28;20651;-87
2022/01/06 10:32:18;;;;;;;2.80;0.77;;;5.90;99.90;;;;;;5005944;28;20192;-86
2022/01/06 10:34:49;;;;;;;3.23;1.47;;;5.90;99.90;;;;;;5005054;28;20230;-88
2022/01/06 10:37:38;;;;;;;0.53;0.53;;;6.00;99.90;;;;;;4988701;28;20267;-88
2022/01/06 10:40:16;;;;;;;3.60;1.03;;;6.10;99.90;;;;;;5006326;28;20223;-86
2022/01/06 10:42:46;;;;;;;1.67;1.37;;;6.30;99.90;;;;;;4988902;28;20219;-87
2022/01/06 10:45:19;;;;;;;1.13;1.00;;;6.50;99.90;;;;;;4989097;28;20222;-87
2022/01/06 10:47:47;;;;;;;2.33;2.17;;;6.80;99.90;;;;;;5006085;28;20272;-87
2022/01/06 10:50:21;;;;;;;3.40;2.17;;;7.10;99.90;;;;;;4988637;28;20254;-89
2022/01/06 10:52:52;;;;;;;3.27;1.20;;;7.30;99.90;;;;;;4990359;28;20215;-87
2022/01/06 10:55:27;;;;;;;1.43;0.90;;;7.30;99.90;;;;;;4990855;28;20220;-87
2022/01/06 10:57:58;;;;;;;12.33;2.33;;;7.40;99.90;;;;;;5005834;28;20265;-88
2022/01/06 11:00:39;;;;;;;3.50;2.10;;;7.40;99.90;;;;;;5005072;28;20238;-86
2022/01/06 11:03:12;;;;;;;5.00;1.60;;;7.40;99.90;;;;;;4988048;28;20351;-86
2022/01/06 11:05:50;;;;;;;0.80;0.80;;;7.20;99.90;;;;;;4988357;28;20192;-88
2022/01/06 11:08:20;;;;;;;1.23;1.13;;;7.00;99.90;;;;;;4990620;28;20222;-88
2022/01/06 11:10:49;;;;;;;4.87;1.50;;;7.00;99.90;;;;;;4973602;28;20216;-88
2022/01/06 11:13:17;;;;;;;0.60;0.60;;;7.00;99.90;;;;;;4973896;28;20342;-90
2022/01/06 11:15:44;;;;;;;38.73;1.80;;;7.00;99.90;;;;;;4988974;28;20224;-88
2022/01/06 11:18:15;;;;;;;1.23;0.90;;;7.00;99.90;;;;;;4988679;28;20216;-86
2022/01/06 11:20:43;;;;;;;0.40;0.40;;;7.00;99.90;;;;;;4989772;28;20207;-86
2022/01/06 11:23:19;;;;;;;2.00;0.40;;;6.90;99.90;;;;;;4989055;28;20188;-88
2022/01/06 11:25:45;;;;;;;1.23;0.97;;;6.90;99.90;;;;;;4990150;28;20215;-87
2022/01/06 11:28:12;;;;;;;1.40;0.40;;;6.90;99.90;;;;;;4971945;28;20681;-89
2022/01/06 11:30:49;;;;;;;1.53;1.03;;;6.90;99.90;;;;;;4971828;28;20258;-86
2022/01/06 11:33:15;;;;;;;8.53;0.73;;;6.90;99.90;;;;;;4972691;28;20609;-86
2022/01/06 11:35:56;;;;;;;3.03;0.50;;;6.90;99.90;;;;;;4986663;28;20222;-87
2022/01/06 11:38:26;;;;;;;0.27;0.27;;;6.80;99.90;;;;;;4988774;28;20611;-86
2022/01/06 11:41:09;;;;;;;2.17;1.03;;;6.70;99.90;;;;;;4987945;28;20343;-91
2022/01/06 11:43:43;;;;;;;1.03;1.03;;;6.70;99.90;;;;;;4987750;28;20212;-87
2022/01/06 11:46:09;;;;;;;1.23;0.93;;;6.70;99.90;;;;;;4986452;28;20409;-87
2022/01/06 11:48:50;;;;;;;0.87;0.87;;;6.80;99.90;;;;;;4987847;28;20212;-86
2022/01/06 11:51:29;;;;;;;4.10;0.60;;;6.90;99.90;;;;;;4988404;28;20258;-88
2022/01/06 11:53:57;;;;;;;2.90;0.60;;;7.00;99.90;;;;;;4988144;28;20243;-84
2022/01/06 11:56:24;;;;;;;2.73;0.60;;;7.00;99.90;;;;;;4988907;28;20238;-86
2022/01/06 11:59:02;;;;;;;2.67;1.57;;;7.20;99.90;;;;;;4971187;28;20203;-87
2022/01/06 12:01:28;;;;;;;4.13;0.60;;;7.30;99.90;;;;;;4987592;28;20231;-87
2022/01/06 12:03:54;;;;;;;0.53;0.50;;;7.40;99.90;;;;;;4987650;28;20287;-89
2022/01/06 12:06:27;;;;;;;1.27;1.17;;;7.40;99.90;;;;;;4970538;28;21320;-88
2022/01/06 12:08:53;;;;;;;3.30;0.93;;;7.50;99.90;;;;;;4987741;28;20208;-89
2022/01/06 12:11:21;;;;;;;0.33;0.27;;;7.40;99.90;;;;;;4986910;28;20748;-88
2022/01/06 12:13:48;;;;;;;1.60;0.60;;;7.50;99.90;;;;;;4987508;28;20772;-86
2022/01/06 12:16:23;;;;;;;12.47;1.47;;;7.50;99.90;;;;;;4971155;28;20243;-88
2022/01/06 12:18:49;;;;;;;9.43;0.63;;;7.60;99.90;;;;;;4971261;28;20723;-88
2022/01/06 12:21:15;;;;;;;0.30;0.30;;;7.60;99.90;;;;;;4954389;28;20224;-87
2022/01/06 12:23:41;;;;;;;7.30;0.87;;;7.70;99.90;;;;;;4971190;28;20196;-85
2022/01/06 12:26:08;;;;;;;0.97;0.70;;;7.60;99.90;;;;;;4985853;28;20188;-86
2022/01/06 12:28:43;;;;;;;0.60;0.60;;;7.60;99.90;;;;;;4986223;28;20208;-89
2022/01/06 12:31:09;;;;;;;1.27;0.83;;;7.70;99.90;;;;;;4987203;28;20211;-86
2022/01/06 12:33:43;;;;;;;1.90;1.10;;;7.60;99.90;;;;;;4970293;28;20212;-87
2022/01/06 12:36:09;;;;;;;0.23;0.23;;;7.60;99.90;;;;;;4986413;28;20212;-87
2022/01/06 12:38:37;;;;;;;2.00;0.70;;;7.60;99.90;;;;;;4970066;28;20223;-85
2022/01/06 12:41:03;;;;;;;5.67;1.87;;;7.60;99.90;;;;;;4970646;28;21102;-88
2022/01/06 12:43:32;;;;;;;0.57;0.53;;;7.60;99.90;;;;;;4994115;28;20222;-85
2022/01/06 12:46:06;;;;;;;3.60;1.13;;;7.70;99.90;;;;;;4987815;28;20256;-86
2022/01/06 12:48:34;;;;;;;0.40;0.40;;;7.70;99.90;;;;;;4988635;28;20307;-86
2022/01/06 12:51:01;;;;;;;8.00;1.17;;;7.70;99.90;;;;;;4987487;28;20203;-87
2022/01/06 12:53:35;;;;;;;6.03;1.17;;;7.80;99.90;;;;;;4987434;28;20279;-88
2022/01/06 12:56:01;;;;;;;7.20;1.27;;;7.90;99.90;;;;;;4989762;28;20215;-90
2022/01/06 12:58:32;;;;;;;0.60;0.60;;;8.10;99.90;;;;;;4972101;28;20247;-86
2022/01/06 13:01:04;;;;;;;0.40;0.40;;;8.30;99.90;;;;;;4985330;28;20216;-87
2022/01/06 13:03:32;;;;;;;2.10;0.83;;;8.70;99.90;;;;;;4988669;28;20251;-88
2022/01/06 13:05:59;;;;;;;0.57;0.50;;;9.00;99.90;;;;;;4989573;28;20226;-87
2022/01/06 13:08:28;;;;;;;0.97;0.97;;;9.30;99.90;;;;;;4990142;28;20508;-88
2022/01/06 13:11:05;;;;;;;5.20;1.00;;;9.30;99.90;;;;;;4989529;28;20224;-86